Time;durP1;ratioP1;P1;durP2;ratioP2;P2;SDS_P1;SDS_P2;PMS_P1;PMS_P2;Temp;Humidity;BMP_temperature;BMP_pressure;BME280_temperature;BME280_humidity;BME280_pressure;Samples;Min_cycle;Max_cycle;Signal;HPM_P1;HPM_P2
2022/10/19 00:01:07;;;;;;;13.85;6.97;;;;;;;12.37;100.00;93315.25;4943621;29;20036;-81
2022/10/19 00:03:34;;;;;;;13.73;7.28;;;;;;;12.39;100.00;93315.78;4937887;29;20046;-81
2022/10/19 00:06:08;;;;;;;17.55;7.18;;;;;;;12.38;100.00;93320.22;4938516;29;20043;-80
2022/10/19 00:08:34;;;;;;;11.48;6.75;;;;;;;12.37;100.00;93310.78;4938911;29;20047;-80
2022/10/19 00:11:00;;;;;;;11.32;6.88;;;;;;;12.36;100.00;93316.31;4939688;29;20039;-80
2022/10/19 00:13:26;;;;;;;12.18;6.97;;;;;;;12.32;100.00;93316.09;4952248;29;20063;-80
2022/10/19 00:15:52;;;;;;;13.93;6.88;;;;;;;12.32;100.00;93310.06;4940625;29;20493;-81
2022/10/19 00:18:17;;;;;;;18.05;7.43;;;;;;;12.32;100.00;93315.31;4957930;28;20031;-81
2022/10/19 00:20:43;;;;;;;13.38;7.35;;;;;;;12.29;100.00;93317.44;4956343;28;20067;-81
2022/10/19 00:23:08;;;;;;;14.18;7.70;;;;;;;12.31;100.00;93311.09;4956723;29;20039;-81
2022/10/19 00:25:34;;;;;;;12.18;6.90;;;;;;;12.26;100.00;93304.06;4956428;29;20103;-80
2022/10/19 00:28:00;;;;;;;15.23;8.02;;;;;;;12.24;100.00;93312.19;4955855;29;20035;-81
2022/10/19 00:30:25;;;;;;;17.30;7.35;;;;;;;12.27;100.00;93309.03;4956838;29;20509;-81
2022/10/19 00:32:51;;;;;;;13.63;6.82;;;;;;;12.27;100.00;93313.50;4954708;29;20054;-80
2022/10/19 00:35:16;;;;;;;15.73;7.70;;;;;;;12.26;100.00;93307.47;4955908;28;20130;-80
2022/10/19 00:37:42;;;;;;;15.52;6.65;;;;;;;12.24;100.00;93304.31;4940688;29;20054;-81
2022/10/19 00:40:08;;;;;;;13.70;6.63;;;;;;;12.23;100.00;93308.03;4939853;29;20067;-81
2022/10/19 00:42:34;;;;;;;12.50;6.38;;;;;;;12.23;100.00;93307.25;4955084;28;20063;-80
2022/10/19 00:45:05;;;;;;;13.70;6.70;;;;;;;12.20;100.00;93298.06;4957742;28;20453;-81
2022/10/19 00:47:31;;;;;;;14.33;6.83;;;;;;;12.17;100.00;93297.84;4957370;28;20031;-80
2022/10/19 00:49:57;;;;;;;12.18;6.80;;;;;;;12.18;100.00;93296.78;4955388;29;20046;-81
2022/10/19 00:52:25;;;;;;;11.40;6.93;;;;;;;12.18;100.00;93294.16;4952289;28;20054;-81
2022/10/19 00:54:52;;;;;;;16.35;6.45;;;;;;;12.17;100.00;93292.59;4938537;29;20035;-80
2022/10/19 00:57:19;;;;;;;19.00;7.10;;;;;;;12.16;100.00;93291.81;4938755;29;20031;-80
2022/10/19 00:59:45;;;;;;;14.52;7.05;;;;;;;12.16;100.00;93288.38;4936695;29;20604;-81
2022/10/19 01:02:11;;;;;;;12.13;6.65;;;;;;;12.15;100.00;93284.22;4936875;29;20039;-80
2022/10/19 01:04:41;;;;;;;13.95;7.07;;;;;;;12.13;100.00;93279.22;4956413;29;20042;-80
2022/10/19 01:07:07;;;;;;;18.88;7.53;;;;;;;12.15;100.00;93279.72;4955046;29;20039;-81
2022/10/19 01:09:33;;;;;;;12.27;6.57;;;;;;;12.15;100.00;93277.09;4955833;29;20449;-80
2022/10/19 01:12:17;;;;;;;13.95;5.78;;;;;;;12.17;100.00;93282.09;4957069;28;20039;-81
2022/10/19 01:15:01;;;;;;;12.70;6.70;;;;;;;12.16;100.00;93276.06;4956210;29;20035;-80
2022/10/19 01:18:02;;;;;;;10.32;6.35;;;;;;;12.17;100.00;93272.38;4957113;28;20569;-80
2022/10/19 01:21:05;;;;;;;11.43;6.45;;;;;;;12.17;100.00;93272.38;4955050;29;20064;-81
2022/10/19 01:24:06;;;;;;;11.38;5.90;;;;;;;12.15;100.00;93265.84;4953766;29;20038;-79
2022/10/19 01:26:46;;;;;;;11.10;6.35;;;;;;;12.14;100.00;93266.91;4937249;29;20482;-82
2022/10/19 01:29:46;;;;;;;10.88;6.30;;;;;;;12.11;100.00;93265.59;4936906;29;20035;-82
2022/10/19 01:32:21;;;;;;;12.23;6.90;;;;;;;12.11;100.00;93254.31;4938894;29;20031;-81
2022/10/19 01:34:56;;;;;;;13.55;6.55;;;;;;;12.04;100.00;93258.03;4920110;29;20182;-81
2022/10/19 01:37:36;;;;;;;13.93;7.05;;;;;;;12.02;100.00;93257.56;4938487;29;20169;-80
2022/10/19 01:40:02;;;;;;;17.77;7.55;;;;;;;12.00;100.00;93251.78;4936454;29;20067;-81
2022/10/19 01:42:52;;;;;;;14.50;7.35;;;;;;;11.98;100.00;93250.47;4938197;29;20031;-81
2022/10/19 01:45:51;;;;;;;12.68;6.47;;;;;;;11.95;100.00;93243.16;4933214;29;20066;-81
2022/10/19 01:48:22;;;;;;;17.17;7.05;;;;;;;11.97;100.00;93252.31;4937687;29;20477;-81
2022/10/19 01:51:29;;;;;;;11.30;7.20;;;;;;;11.96;100.00;93244.75;4949871;29;20071;-80
2022/10/19 01:53:59;;;;;;;13.27;6.65;;;;;;;11.95;100.00;93240.56;4903154;29;20044;-80
2022/10/19 01:56:27;;;;;;;14.15;7.05;;;;;;;11.95;100.00;93243.16;4953776;28;20051;-80
2022/10/19 01:58:57;;;;;;;14.20;7.78;;;;;;;11.95;100.00;93237.94;4960688;28;20028;-81
2022/10/19 02:01:26;;;;;;;12.07;6.45;;;;;;;11.95;100.00;93243.94;4944029;29;20031;-81
2022/10/19 02:03:53;;;;;;;14.00;6.95;;;;;;;11.94;100.00;93241.63;4946177;29;20043;-82
2022/10/19 02:06:19;;;;;;;13.07;7.20;;;;;;;11.92;100.00;93241.09;4954428;29;20717;-81
2022/10/19 02:08:48;;;;;;;19.23;7.40;;;;;;;11.94;100.00;93241.63;4960005;29;20474;-80
2022/10/19 02:11:15;;;;;;;11.30;6.40;;;;;;;11.93;100.00;93240.03;4960135;28;20039;-79
2022/10/19 02:13:43;;;;;;;11.68;6.25;;;;;;;11.92;100.00;93234.00;4956862;29;20039;-81
2022/10/19 02:16:15;;;;;;;11.70;5.90;;;;;;;11.91;100.00;93242.97;4942880;29;20066;-81
2022/10/19 02:18:45;;;;;;;14.68;5.95;;;;;;;11.90;100.00;93244.00;4958391;29;20043;-81
2022/10/19 02:21:11;;;;;;;13.90;5.78;;;;;;;11.91;100.00;93237.72;4958605;28;20042;-79
2022/10/19 02:23:37;;;;;;;11.00;6.05;;;;;;;11.89;100.00;93231.94;4939917;29;20046;-81
2022/10/19 02:26:03;;;;;;;11.35;5.95;;;;;;;11.88;100.00;93228.53;4942700;29;20043;-81
2022/10/19 02:28:29;;;;;;;18.00;6.45;;;;;;;11.90;100.00;93228.25;4958660;29;20050;-80
2022/10/19 02:30:55;;;;;;;9.93;5.65;;;;;;;11.89;100.00;93224.09;4958463;29;20489;-81
2022/10/19 02:33:22;;;;;;;10.82;5.72;;;;;;;11.87;100.00;93231.41;4958150;29;20043;-81
2022/10/19 02:35:47;;;;;;;12.90;6.18;;;;;;;11.86;100.00;93230.59;4940719;29;20063;-81
2022/10/19 02:38:19;;;;;;;18.92;6.07;;;;;;;11.82;100.00;93227.00;4957439;29;20117;-79
2022/10/19 02:40:56;;;;;;;14.48;5.70;;;;;;;11.78;100.00;93223.34;4958210;29;20038;-81
2022/10/19 02:43:25;;;;;;;11.70;6.40;;;;;;;11.75;100.00;93229.13;4958698;28;20031;-80
2022/10/19 02:46:00;;;;;;;12.50;6.68;;;;;;;11.75;100.00;93221.25;4957970;28;20039;-82
2022/10/19 02:48:29;;;;;;;12.90;6.28;;;;;;;11.73;100.00;93215.53;4941206;29;20042;-80
2022/10/19 02:50:54;;;;;;;16.45;6.43;;;;;;;11.76;100.00;93220.22;4956633;29;20043;-81
2022/10/19 02:53:20;;;;;;;12.50;5.93;;;;;;;11.75;100.00;93213.38;4957450;29;20098;-81
2022/10/19 02:55:48;;;;;;;12.93;6.22;;;;;;;11.76;100.00;93214.97;4957011;28;20027;-80
2022/10/19 02:58:13;;;;;;;12.15;5.78;;;;;;;11.76;100.00;93212.34;4958105;28;20437;-81
2022/10/19 03:00:39;;;;;;;17.15;6.13;;;;;;;11.76;100.00;93208.94;4959141;29;20039;-80
2022/10/19 03:03:05;;;;;;;12.95;5.70;;;;;;;11.76;100.00;93208.94;4957645;29;20031;-79
2022/10/19 03:05:30;;;;;;;13.88;5.65;;;;;;;11.76;100.00;93209.72;4954915;29;20035;-79
2022/10/19 03:07:56;;;;;;;11.18;5.00;;;;;;;11.76;100.00;93193.97;4944546;29;20083;-81
2022/10/19 03:10:22;;;;;;;10.45;5.50;;;;;;;11.74;100.00;93206.59;4937630;29;20102;-80
2022/10/19 03:12:47;;;;;;;12.93;6.28;;;;;;;11.76;100.00;93203.69;4939563;29;20048;-81
2022/10/19 03:15:15;;;;;;;15.25;7.47;;;;;;;11.77;100.00;93210.50;4948755;29;20031;-81
2022/10/19 03:17:41;;;;;;;15.82;6.32;;;;;;;11.76;100.00;93201.84;4956766;28;20401;-81
2022/10/19 03:20:07;;;;;;;17.23;6.55;;;;;;;11.73;100.00;93205.03;4957413;29;20102;-81
2022/10/19 03:22:32;;;;;;;11.48;6.03;;;;;;;11.78;100.00;93205.00;4957634;28;20111;-81
2022/10/19 03:24:58;;;;;;;24.52;5.45;;;;;;;11.78;100.00;93202.38;4939938;29;20121;-81
2022/10/19 03:27:23;;;;;;;9.85;5.20;;;;;;;11.75;100.00;93200.28;4944306;29;20050;-81
2022/10/19 03:29:49;;;;;;;10.77;4.70;;;;;;;11.75;100.00;93202.91;4922208;29;20050;-81
2022/10/19 03:32:15;;;;;;;14.07;5.15;;;;;;;11.78;100.00;93209.47;4922215;29;20375;-81
2022/10/19 03:34:40;;;;;;;11.20;5.15;;;;;;;11.77;100.00;93216.53;4937939;29;20043;-81
2022/10/19 03:37:07;;;;;;;7.65;4.32;;;;;;;11.74;100.00;93211.84;4956424;29;20043;-80
2022/10/19 03:39:33;;;;;;;9.65;4.68;;;;;;;11.72;100.00;93200.06;4957378;28;20042;-81
2022/10/19 03:41:59;;;;;;;9.90;4.47;;;;;;;11.72;100.00;93203.47;4957859;28;20044;-80
2022/10/19 03:44:24;;;;;;;11.15;5.13;;;;;;;11.71;100.00;93206.34;4958819;29;20031;-81
2022/10/19 03:46:50;;;;;;;13.75;4.75;;;;;;;11.70;100.00;93205.56;4953428;29;20035;-80
2022/10/19 03:49:15;;;;;;;11.43;4.28;;;;;;;11.70;100.00;93210.81;4938905;29;20508;-80
2022/10/19 03:51:41;;;;;;;10.00;4.38;;;;;;;11.69;100.00;93206.63;4939153;29;20482;-80
2022/10/19 03:54:12;;;;;;;12.85;4.68;;;;;;;11.67;100.00;93203.50;4938236;29;20035;-81
2022/10/19 03:56:37;;;;;;;18.00;4.70;;;;;;;11.68;100.00;93207.69;4944525;29;20344;-81
2022/10/19 03:59:05;;;;;;;8.93;3.80;;;;;;;11.66;100.00;93200.09;4940928;28;20044;-81
2022/10/19 04:01:36;;;;;;;13.07;4.72;;;;;;;11.67;100.00;93201.66;4938980;29;20114;-80
2022/10/19 04:04:09;;;;;;;9.98;4.60;;;;;;;11.64;100.00;93207.47;4937888;29;20038;-80
2022/10/19 04:06:38;;;;;;;12.13;4.35;;;;;;;11.66;100.00;93204.56;4949229;29;20039;-80
2022/10/19 04:09:06;;;;;;;13.20;4.80;;;;;;;11.66;100.00;93207.16;4943393;28;20600;-79
2022/10/19 04:11:32;;;;;;;10.73;4.75;;;;;;;11.64;100.00;93201.41;4939604;29;20114;-80
2022/10/19 04:13:59;;;;;;;10.77;4.47;;;;;;;11.62;100.00;93201.72;4939127;29;20066;-80
2022/10/19 04:16:27;;;;;;;9.50;4.60;;;;;;;11.64;100.00;93198.78;4941353;29;20480;-80
2022/10/19 04:18:53;;;;;;;10.30;4.72;;;;;;;11.64;100.00;93202.22;4949644;28;20031;-81
2022/10/19 04:21:26;;;;;;;7.82;4.60;;;;;;;11.63;100.00;93195.41;4952333;29;20035;-81
2022/10/19 04:23:57;;;;;;;12.15;4.95;;;;;;;11.62;100.00;93187.81;4958474;28;20035;-81
2022/10/19 04:26:23;;;;;;;12.45;4.60;;;;;;;11.60;100.00;93195.19;4954812;29;20548;-80
2022/10/19 04:28:48;;;;;;;10.45;4.40;;;;;;;11.58;100.00;93197.28;4952037;28;20115;-81
2022/10/19 04:31:14;;;;;;;12.48;4.93;;;;;;;11.56;100.00;93186.28;4935573;29;20047;-81
2022/10/19 04:33:39;;;;;;;10.77;3.83;;;;;;;11.56;100.00;93188.91;4942887;28;20075;-81
2022/10/19 04:36:07;;;;;;;8.30;3.13;;;;;;;11.51;100.00;93183.72;4946566;29;20039;-79
2022/10/19 04:38:33;;;;;;;9.60;3.30;;;;;;;11.50;100.00;93180.28;4936507;29;20413;-80
2022/10/19 04:41:11;;;;;;;11.13;3.60;;;;;;;11.48;100.00;93177.16;4966711;28;20057;-80
2022/10/19 04:43:37;;;;;;;14.23;3.83;;;;;;;11.46;100.00;93179.28;4970606;28;20046;-82
2022/10/19 04:46:23;;;;;;;13.10;4.18;;;;;;;11.44;100.00;93174.31;4961171;28;20035;-81
2022/10/19 04:48:49;;;;;;;9.80;3.92;;;;;;;11.46;100.00;93180.06;4952432;29;20051;-82
2022/10/19 04:51:16;;;;;;;12.68;4.45;;;;;;;11.45;100.00;93177.72;4960375;28;20041;-81
2022/10/19 04:53:43;;;;;;;6.93;3.67;;;;;;;11.42;100.00;93173.81;4956404;28;20043;-80
2022/10/19 04:56:14;;;;;;;16.88;4.35;;;;;;;11.43;100.00;93175.34;4951775;29;20031;-80
2022/10/19 04:58:40;;;;;;;16.38;3.90;;;;;;;11.42;100.00;93181.66;4954501;28;20031;-80
2022/10/19 05:01:17;;;;;;;10.18;3.88;;;;;;;11.34;100.00;93166.50;4953256;28;20086;-80
2022/10/19 05:03:44;;;;;;;12.27;3.92;;;;;;;11.36;100.00;93180.13;4953795;29;20556;-80
2022/10/19 05:06:11;;;;;;;9.30;3.95;;;;;;;11.30;100.00;93175.97;4958008;28;20050;-81
2022/10/19 05:08:37;;;;;;;14.88;3.95;;;;;;;11.27;100.00;93183.63;4956009;28;20047;-79
2022/10/19 05:11:05;;;;;;;10.55;3.70;;;;;;;11.23;100.00;93175.50;4956038;28;20042;-79
2022/10/19 05:13:31;;;;;;;13.90;4.88;;;;;;;11.20;100.00;93176.84;4950858;29;20039;-81
2022/10/19 05:16:02;;;;;;;9.90;4.30;;;;;;;11.19;100.00;93179.72;4960504;28;20035;-80
2022/10/19 05:18:28;;;;;;;13.00;4.57;;;;;;;11.19;100.00;93174.47;4960284;28;20039;-80
2022/10/19 05:21:09;;;;;;;8.95;4.18;;;;;;;11.14;100.00;93188.41;4958010;28;20046;-79
2022/10/19 05:23:35;;;;;;;10.73;4.38;;;;;;;11.09;100.00;93182.44;4958806;29;20113;-79
2022/10/19 05:26:00;;;;;;;11.55;5.28;;;;;;;11.08;100.00;93179.03;4955496;28;20549;-80
2022/10/19 05:28:26;;;;;;;13.82;4.90;;;;;;;11.06;100.00;93180.34;4961071;28;20090;-83
2022/10/19 05:30:51;;;;;;;11.80;4.32;;;;;;;11.08;100.00;93186.09;4959526;29;20035;-77
2022/10/19 05:33:17;;;;;;;15.52;4.60;;;;;;;11.10;100.00;93183.97;4955178;29;20046;-77
2022/10/19 05:35:42;;;;;;;13.82;4.50;;;;;;;11.11;100.00;93182.94;4960014;29;20051;-78
2022/10/19 05:38:08;;;;;;;11.75;4.53;;;;;;;11.13;100.00;93180.84;4959577;29;20047;-78
2022/10/19 05:40:33;;;;;;;12.73;4.90;;;;;;;11.13;100.00;93179.00;4928875;29;20099;-78
2022/10/19 05:42:59;;;;;;;11.85;4.50;;;;;;;11.14;100.00;93179.75;4960280;29;20117;-79
2022/10/19 05:45:24;;;;;;;11.43;4.32;;;;;;;11.14;100.00;93177.91;4944731;29;20043;-79
2022/10/19 05:47:50;;;;;;;15.23;4.88;;;;;;;11.18;100.00;93167.69;4944805;29;20118;-78
2022/10/19 05:50:15;;;;;;;10.13;4.55;;;;;;;11.18;100.00;93168.47;4944614;29;20050;-78
2022/10/19 05:52:41;;;;;;;10.27;4.43;;;;;;;11.23;100.00;93167.66;4953637;28;20170;-79
2022/10/19 05:55:07;;;;;;;9.95;4.30;;;;;;;11.27;100.00;93166.06;4936663;29;20544;-79
2022/10/19 05:57:32;;;;;;;9.02;4.28;;;;;;;11.32;100.00;93168.63;4962282;28;20050;-78
2022/10/19 05:59:58;;;;;;;8.73;4.18;;;;;;;11.40;100.00;93162.81;4949551;28;20051;-79
2022/10/19 06:02:23;;;;;;;10.10;4.20;;;;;;;11.82;100.00;93166.66;4950464;29;20043;-78
2022/10/19 06:04:49;;;;;;;10.68;4.50;;;;;;;12.29;100.00;93167.78;4958688;29;20051;-79
2022/10/19 06:07:14;;;;;;;12.35;4.57;;;;;;;12.78;100.00;93165.09;4962377;28;20043;-78
2022/10/19 06:09:40;;;;;;;13.93;4.20;;;;;;;13.26;98.08;93172.84;4961194;29;20047;-78
2022/10/19 06:12:06;;;;;;;13.93;4.43;;;;;;;13.75;95.17;93169.75;4954399;29;20040;-78
2022/10/19 06:14:31;;;;;;;11.40;4.40;;;;;;;14.27;91.92;93174.13;4959119;29;20690;-79
2022/10/19 06:16:57;;;;;;;9.88;3.55;;;;;;;14.85;89.61;93170.91;4963194;29;20390;-79
2022/10/19 06:19:23;;;;;;;11.63;3.08;;;;;;;15.46;84.27;93181.22;4961585;29;20051;-79
2022/10/19 06:21:48;;;;;;;7.68;2.80;;;;;;;15.97;83.51;93178.16;4959854;28;20397;-78
2022/10/19 06:24:14;;;;;;;8.18;2.92;;;;;;;16.57;78.03;93182.19;4946761;29;20031;-79
2022/10/19 06:26:39;;;;;;;11.48;3.35;;;;;;;17.24;78.15;93188.25;4963643;28;20043;-79
2022/10/19 06:29:05;;;;;;;9.85;3.08;;;;;;;17.79;73.82;93189.50;4959229;28;20035;-79
2022/10/19 06:31:34;;;;;;;10.35;3.22;;;;;;;18.34;68.80;93202.03;4955073;28;20047;-80
2022/10/19 06:33:59;;;;;;;10.20;3.00;;;;;;;18.75;66.43;93191.88;4946014;28;20035;-79
2022/10/19 06:36:27;;;;;;;10.43;2.95;;;;;;;19.23;65.60;93191.50;4952730;29;20068;-79
2022/10/19 06:38:53;;;;;;;10.32;3.13;;;;;;;19.86;64.96;93190.72;4939550;29;20040;-79
2022/10/19 06:41:19;;;;;;;13.05;2.60;;;;;;;20.49;63.09;93191.34;4930081;29;20483;-79
2022/10/19 06:43:52;;;;;;;7.85;2.70;;;;;;;20.79;58.91;93193.81;4942679;29;20371;-79
2022/10/19 06:46:21;;;;;;;7.28;3.42;;;;;;;21.07;55.49;93196.56;4927629;29;20040;-79
2022/10/19 06:48:59;;;;;;;13.88;3.55;;;;;;;21.72;55.53;93196.59;4943262;29;20032;-79
2022/10/19 06:51:26;;;;;;;11.55;3.10;;;;;;;22.09;52.19;93193.78;4961814;29;20035;-79
2022/10/19 06:53:52;;;;;;;12.95;3.22;;;;;;;22.46;51.53;93201.59;4972469;28;20037;-78
2022/10/19 06:56:19;;;;;;;11.23;3.30;;;;;;;23.20;51.24;93201.09;4955706;28;20075;-78
2022/10/19 06:58:44;;;;;;;7.07;2.75;;;;;;;23.79;48.56;93199.31;4943070;29;20490;-80
2022/10/19 07:01:12;;;;;;;10.57;3.17;;;;;;;23.95;46.67;93201.91;4943360;29;20035;-80
2022/10/19 07:03:39;;;;;;;11.20;2.78;;;;;;;24.35;45.88;93204.19;4943162;29;20044;-80
2022/10/19 07:06:10;;;;;;;9.95;2.95;;;;;;;24.73;43.96;93205.25;4946594;29;20051;-80
2022/10/19 07:08:37;;;;;;;12.65;3.13;;;;;;;25.23;43.59;93205.28;4961335;29;20056;-80
2022/10/19 07:11:06;;;;;;;9.40;3.05;;;;;;;25.58;43.76;93207.72;4955629;28;20047;-80
2022/10/19 07:13:32;;;;;;;9.10;2.80;;;;;;;25.73;42.37;93204.06;4929228;29;20035;-80
2022/10/19 07:15:58;;;;;;;9.90;3.00;;;;;;;26.44;41.79;93208.72;4963409;28;20051;-81
2022/10/19 07:18:25;;;;;;;16.70;3.72;;;;;;;26.71;40.12;93212.06;4953196;29;20039;-80
2022/10/19 07:20:58;;;;;;;12.05;2.90;;;;;;;26.83;40.16;93202.97;4967522;28;20094;-78
2022/10/19 07:23:26;;;;;;;15.48;3.35;;;;;;;26.90;39.47;93202.25;4973370;28;20062;-78
2022/10/19 07:25:54;;;;;;;9.82;3.33;;;;;;;26.85;40.61;93207.97;4958966;28;20038;-77
2022/10/19 07:28:22;;;;;;;8.07;3.05;;;;;;;26.78;39.98;93212.13;4955020;28;20469;-79
2022/10/19 07:30:48;;;;;;;10.80;3.08;;;;;;;26.79;39.26;93210.22;4958899;29;20118;-79
2022/10/19 07:33:13;;;;;;;12.60;4.07;;;;;;;26.47;42.19;93210.66;4959145;29;20039;-79
2022/10/19 07:35:39;;;;;;;13.45;4.10;;;;;;;25.38;42.98;93215.09;4960739;29;20035;-79
2022/10/19 07:38:04;;;;;;;11.55;4.10;;;;;;;25.16;44.13;93221.25;4936725;29;20118;-79
2022/10/19 07:40:30;;;;;;;8.80;3.22;;;;;;;25.41;44.68;93211.66;4960304;29;20442;-78
2022/10/19 07:42:56;;;;;;;8.82;3.30;;;;;;;25.76;42.83;93213.31;4962091;28;20104;-79
2022/10/19 07:45:21;;;;;;;10.57;3.67;;;;;;;25.12;42.60;93203.19;4959571;29;20111;-79
2022/10/19 07:47:47;;;;;;;12.38;3.60;;;;;;;24.56;44.10;93209.16;4959421;29;20047;-79
2022/10/19 07:50:12;;;;;;;10.95;4.03;;;;;;;23.96;44.96;93208.78;4937392;29;20043;-78
2022/10/19 07:52:38;;;;;;;6.40;3.00;;;;;;;23.39;46.38;93208.38;4940151;29;20106;-77
2022/10/19 07:55:04;;;;;;;6.85;3.30;;;;;;;23.05;46.78;93203.44;4939060;29;20074;-77
2022/10/19 07:57:29;;;;;;;8.80;3.47;;;;;;;22.57;47.25;93208.00;4945084;29;20051;-78
2022/10/19 07:59:55;;;;;;;14.50;3.40;;;;;;;22.29;48.12;93217.94;4927676;29;20042;-77
2022/10/19 08:02:20;;;;;;;11.70;3.42;;;;;;;21.86;48.90;93208.75;4942846;29;20039;-77
2022/10/19 08:04:46;;;;;;;11.50;3.55;;;;;;;21.95;50.26;93212.84;4957312;29;20030;-79
2022/10/19 08:07:11;;;;;;;10.32;3.63;;;;;;;22.60;49.00;93217.97;4958319;28;20062;-78
2022/10/19 08:09:37;;;;;;;13.85;3.72;;;;;;;22.84;49.87;93210.91;4952009;28;20079;-77
2022/10/19 08:12:03;;;;;;;7.35;3.17;;;;;;;23.36;49.21;93204.50;4938715;29;20077;-77
2022/10/19 08:14:29;;;;;;;11.95;3.95;;;;;;;22.97;48.90;93209.72;4920868;29;20130;-77
2022/10/19 08:16:54;;;;;;;10.98;4.68;;;;;;;22.39;53.81;93207.53;4939682;29;20151;-77
2022/10/19 08:19:21;;;;;;;10.73;4.93;;;;;;;21.86;54.46;93201.53;4943891;29;20034;-78
2022/10/19 08:21:47;;;;;;;7.28;3.55;;;;;;;21.92;53.31;93215.41;4946759;28;20098;-77
2022/10/19 08:24:15;;;;;;;8.32;3.50;;;;;;;21.74;52.44;93202.34;4937025;29;20123;-77
2022/10/19 08:26:41;;;;;;;12.48;4.05;;;;;;;22.10;51.89;93208.66;4936069;29;20027;-77
2022/10/19 08:29:10;;;;;;;9.25;3.60;;;;;;;22.10;49.83;93203.31;4937267;29;20102;-79
2022/10/19 08:31:36;;;;;;;10.35;3.28;;;;;;;22.16;49.89;93209.97;4940342;29;20028;-77
2022/10/19 08:34:02;;;;;;;13.20;3.20;;;;;;;22.36;51.07;93207.44;4922849;29;20024;-77
2022/10/19 08:36:30;;;;;;;8.93;3.15;;;;;;;22.63;50.41;93206.63;4938208;29;20127;-76
2022/10/19 08:38:56;;;;;;;10.48;3.53;;;;;;;22.45;52.10;93205.41;4935660;29;20402;-75
2022/10/19 08:41:39;;;;;;;11.73;4.22;;;;;;;22.08;54.35;93210.88;4942535;29;20055;-77
2022/10/19 08:44:14;;;;;;;8.50;3.42;;;;;;;22.09;50.95;93199.13;4940212;29;20040;-77
2022/10/19 08:46:46;;;;;;;11.68;3.17;;;;;;;22.02;51.33;93209.56;4937171;29;20039;-77
2022/10/19 08:49:18;;;;;;;11.65;3.30;;;;;;;21.97;52.80;93199.94;4950524;28;20058;-78
2022/10/19 08:51:49;;;;;;;13.57;3.53;;;;;;;22.13;52.88;93201.88;4956611;29;20039;-78
2022/10/19 08:54:16;;;;;;;9.45;4.63;;;;;;;22.35;53.17;93206.66;4948181;28;20035;-79
2022/10/19 08:57:04;;;;;;;11.80;4.45;;;;;;;21.79;54.08;93202.09;4935260;29;20046;-77
2022/10/19 08:59:55;;;;;;;7.38;2.95;;;;;;;21.80;49.62;93200.25;4951712;29;20035;-77
2022/10/19 09:02:39;;;;;;;8.88;3.72;;;;;;;21.55;50.31;93199.53;4948750;28;20072;-78
2022/10/19 09:05:15;;;;;;;9.10;3.70;;;;;;;21.48;52.64;93196.66;4949506;29;20039;-77
2022/10/19 09:07:44;;;;;;;10.75;4.20;;;;;;;21.59;52.99;93208.38;4954400;29;20123;-78
2022/10/19 09:10:13;;;;;;;14.07;4.38;;;;;;;21.75;52.43;93197.78;4954180;28;20239;-78
2022/10/19 09:12:48;;;;;;;9.27;2.75;;;;;;;22.06;50.61;93194.44;4954912;29;20035;-78
2022/10/19 09:15:27;;;;;;;20.75;5.15;;;;;;;21.79;57.20;93202.09;4948906;29;20597;-79
2022/10/19 09:17:53;;;;;;;13.07;5.22;;;;;;;21.28;59.22;93199.13;4957602;28;20031;-79
2022/10/19 09:20:21;;;;;;;15.90;4.82;;;;;;;21.13;59.40;93197.13;4957856;29;20508;-79
2022/10/19 09:23:17;;;;;;;13.40;4.85;;;;;;;21.01;58.57;93200.59;4958757;28;20027;-80
2022/10/19 09:25:42;;;;;;;17.33;5.40;;;;;;;21.12;59.71;93199.03;4955218;28;20134;-79
2022/10/19 09:28:22;;;;;;;14.32;4.85;;;;;;;21.50;58.63;93205.09;4955372;29;20113;-79
2022/10/19 09:30:50;;;;;;;16.27;4.40;;;;;;;21.75;56.19;93195.94;4938379;28;20050;-78
2022/10/19 09:33:34;;;;;;;12.43;4.75;;;;;;;22.03;53.08;93201.25;4948447;29;20034;-79
2022/10/19 09:36:03;;;;;;;13.13;5.65;;;;;;;22.06;56.71;93199.78;4956601;28;20500;-79
2022/10/19 09:38:30;;;;;;;15.82;5.18;;;;;;;22.06;56.57;93207.78;4948551;28;20035;-79
2022/10/19 09:40:57;;;;;;;13.77;4.80;;;;;;;22.01;56.81;93208.03;4936977;29;20103;-79
2022/10/19 09:43:26;;;;;;;14.48;5.07;;;;;;;22.23;51.11;93209.41;4936044;29;20108;-79
2022/10/19 09:45:51;;;;;;;11.43;4.00;;;;;;;22.02;53.77;93209.56;4937219;29;20039;-79
2022/10/19 09:48:32;;;;;;;10.13;3.90;;;;;;;22.51;51.12;93211.25;4949596;29;20028;-79
2022/10/19 09:51:01;;;;;;;6.80;2.95;;;;;;;22.47;46.45;93213.03;4936158;29;20036;-79
2022/10/19 09:53:28;;;;;;;9.02;3.00;;;;;;;22.79;43.55;93214.63;4935920;29;20027;-80
2022/10/19 09:56:07;;;;;;;10.63;3.63;;;;;;;22.85;49.79;93207.91;4937358;29;20043;-79
2022/10/19 09:58:34;;;;;;;11.75;3.58;;;;;;;22.98;46.36;93205.91;4930398;29;20039;-80
2022/10/19 10:01:01;;;;;;;8.95;4.32;;;;;;;23.07;49.75;93203.09;4936837;29;20031;-79
2022/10/19 10:03:26;;;;;;;12.15;4.70;;;;;;;22.71;54.09;93209.47;4920116;29;20375;-79
2022/10/19 10:05:54;;;;;;;11.98;4.90;;;;;;;22.65;53.21;93208.94;4936795;29;20126;-81
2022/10/19 10:08:24;;;;;;;12.15;3.15;;;;;;;22.14;43.91;93201.53;4939321;29;20075;-79
2022/10/19 10:11:34;;;;;;;8.85;3.90;;;;;;;22.27;47.82;93204.16;4957986;29;20505;-79
2022/10/19 10:14:11;;;;;;;11.32;3.13;;;;;;;22.61;45.69;93208.84;4957329;29;20047;-79
2022/10/19 10:16:36;;;;;;;11.43;3.17;;;;;;;22.69;44.44;93215.13;4958165;29;20043;-79
2022/10/19 10:19:05;;;;;;;8.48;2.97;;;;;;;22.37;47.50;93215.09;4958906;28;20117;-79
2022/10/19 10:21:56;;;;;;;9.75;3.63;;;;;;;22.51;50.08;93217.34;4940494;29;20398;-79
2022/10/19 10:24:24;;;;;;;9.98;3.63;;;;;;;22.20;48.60;93210.84;4939056;29;20084;-79
2022/10/19 10:26:53;;;;;;;9.02;3.05;;;;;;;21.95;47.04;93206.72;4939859;29;20062;-79
2022/10/19 10:29:24;;;;;;;8.57;3.20;;;;;;;22.09;49.70;93201.78;4922954;29;20147;-79
2022/10/19 10:32:12;;;;;;;12.43;3.33;;;;;;;22.51;50.17;93214.69;4940527;29;20031;-79
2022/10/19 10:34:44;;;;;;;8.85;3.40;;;;;;;22.46;48.21;93217.63;4957955;29;20054;-79
2022/10/19 10:37:39;;;;;;;8.38;3.33;;;;;;;22.24;49.56;93214.38;4940540;29;20036;-79
2022/10/19 10:40:14;;;;;;;10.18;3.40;;;;;;;22.35;49.85;93205.91;4936285;29;20043;-79
2022/10/19 10:42:44;;;;;;;10.55;3.63;;;;;;;22.20;52.00;93205.50;4925399;29;20522;-80
2022/10/19 10:45:28;;;;;;;11.82;3.38;;;;;;;21.98;51.19;93198.84;4959516;28;20146;-79
2022/10/19 10:47:56;;;;;;;9.68;3.80;;;;;;;22.24;52.50;93201.06;4959131;28;20042;-80
2022/10/19 10:50:25;;;;;;;8.60;3.63;;;;;;;22.06;51.75;93205.13;4959050;29;20035;-79
2022/10/19 10:52:58;;;;;;;10.88;3.42;;;;;;;21.91;49.47;93192.50;4958881;28;20034;-80
2022/10/19 10:55:53;;;;;;;10.80;3.72;;;;;;;21.96;50.86;93194.97;4952383;29;20035;-80
2022/10/19 10:58:46;;;;;;;9.23;3.40;;;;;;;22.01;51.74;93192.03;4938744;29;20035;-79
2022/10/19 11:01:20;;;;;;;13.05;3.55;;;;;;;22.38;51.65;93183.88;4940054;29;20031;-79
2022/10/19 11:03:59;;;;;;;7.13;3.33;;;;;;;22.68;50.33;93184.25;4941368;29;20039;-79
2022/10/19 11:06:25;;;;;;;8.00;3.22;;;;;;;22.48;51.79;93188.72;4938751;29;20502;-79
2022/10/19 11:09:08;;;;;;;9.05;3.47;;;;;;;22.36;51.37;93186.91;4938634;29;20163;-80
2022/10/19 11:11:44;;;;;;;8.07;3.70;;;;;;;22.66;51.46;93181.13;4938958;29;20078;-79
2022/10/19 11:14:34;;;;;;;10.40;3.53;;;;;;;22.81;49.69;93180.38;4940713;29;20043;-79
2022/10/19 11:17:06;;;;;;;9.48;3.13;;;;;;;22.76;49.37;93177.16;4938499;29;20040;-80
2022/10/19 11:19:36;;;;;;;;;;;;;;;22.61;51.46;93179.50;4939546;29;20450;-79
2022/10/19 11:22:20;;;;;;;14.10;4.60;;;;;;;22.36;53.03;93172.75;4952225;29;19918;-79
2022/10/19 11:24:45;;;;;;;9.70;3.80;;;;;;;22.42;53.46;93172.16;4957019;29;20048;-80
2022/10/19 11:27:17;;;;;;;14.02;4.10;;;;;;;22.57;52.59;93167.97;4960995;28;20039;-80
2022/10/19 11:29:53;;;;;;;8.73;3.17;;;;;;;22.66;52.28;93167.81;4958860;28;20098;-80
2022/10/19 11:32:43;;;;;;;11.07;3.70;;;;;;;22.65;51.11;93161.69;4958184;29;20047;-80
2022/10/19 11:35:24;;;;;;;8.05;3.55;;;;;;;22.57;48.72;93162.63;4958448;28;20043;-80
2022/10/19 11:37:52;;;;;;;7.70;3.65;;;;;;;22.19;52.94;93163.19;4922421;29;20046;-79